createdAt,value
2019-05-29T00:01:29.820Z,75.25
2019-05-29T00:03:58.942Z,75.03
2019-05-29T00:06:28.203Z,75.24
2019-05-29T00:08:57.322Z,75.39
2019-05-29T00:11:26.531Z,75.31
2019-05-29T00:13:55.692Z,75.57
2019-05-29T00:16:24.936Z,75.46
2019-05-29T00:18:54.143Z,75.46
2019-05-29T00:21:23.293Z,75.52
2019-05-29T00:23:52.397Z,75.25
2019-05-29T00:26:21.535Z,75.34
2019-05-29T00:28:50.681Z,75.15
2019-05-29T00:31:19.799Z,75.32
2019-05-29T00:33:49.035Z,75.41
2019-05-29T00:36:18.203Z,75.33
2019-05-29T00:38:47.305Z,75.12
2019-05-29T00:41:17.120Z,74.77
2019-05-29T00:43:46.219Z,75.22
2019-05-29T00:46:15.588Z,75.02
2019-05-29T00:48:44.737Z,74.67
2019-05-29T00:51:14.914Z,74.75
2019-05-29T00:53:44.193Z,74.75
2019-05-29T00:56:14.613Z,75.15
2019-05-29T00:58:43.918Z,75.12
2019-05-29T01:01:13.418Z,75.54
2019-05-29T01:03:42.529Z,76.14
2019-05-29T01:06:12.066Z,76.43
2019-05-29T01:08:41.240Z,76.51
2019-05-29T01:11:10.636Z,76.51
2019-05-29T01:13:39.753Z,76.65
2019-05-29T01:16:08.830Z,76.88
2019-05-29T01:18:37.969Z,76.79
2019-05-29T01:21:07.103Z,76.97
2019-05-29T01:23:36.240Z,76.93
2019-05-29T01:26:05.348Z,76.85
2019-05-29T01:28:34.536Z,76.67
2019-05-29T01:31:03.711Z,76.42
2019-05-29T01:33:32.850Z,76.57
2019-05-29T01:36:01.960Z,76.45
2019-05-29T01:38:31.267Z,76.53
2019-05-29T01:41:02.824Z,76.79
2019-05-29T01:43:32.068Z,77.02
2019-05-29T01:46:01.176Z,77.33
2019-05-29T01:48:30.497Z,77.16
2019-05-29T01:50:59.612Z,77.24
2019-05-29T01:53:28.759Z,77.22
2019-05-29T01:55:57.907Z,77.24
2019-05-29T01:58:27.989Z,77.14
2019-05-29T02:00:57.210Z,77.11
2019-05-29T02:03:26.397Z,77.07
2019-05-29T02:05:55.523Z,77.15
2019-05-29T02:08:24.653Z,77.25
2019-05-29T02:10:53.791Z,77.08
2019-05-29T02:13:23.573Z,77.37
2019-05-29T02:15:52.694Z,77.36
2019-05-29T02:18:22.995Z,77.14
2019-05-29T02:20:52.288Z,77.19
2019-05-29T02:23:22.102Z,77.36
2019-05-29T02:25:51.811Z,77.09
2019-05-29T02:28:20.911Z,77.30
2019-05-29T02:30:50.386Z,76.99
2019-05-29T02:33:19.708Z,76.63
2019-05-29T02:35:48.942Z,77.46
2019-05-29T02:38:18.486Z,77.24
2019-05-29T02:40:48.413Z,76.97
2019-05-29T02:43:19.174Z,76.84
2019-05-29T02:45:54.469Z,77.15
2019-05-29T02:48:20.837Z,77.05
2019-05-29T02:50:50.333Z,77.54
2019-05-29T02:53:20.161Z,77.44
2019-05-29T02:55:49.214Z,77.75
2019-05-29T02:58:18.341Z,77.94
2019-05-29T03:00:53.356Z,77.77
2019-05-29T03:03:23.935Z,77.77
2019-05-29T03:05:55.317Z,78.30
2019-05-29T03:08:26.695Z,78.50
2019-05-29T03:10:55.578Z,78.69
2019-05-29T03:13:27.386Z,78.48
2019-05-29T03:16:09.901Z,78.12
2019-05-29T03:18:28.149Z,78.48
2019-05-29T03:20:57.345Z,78.64
2019-05-29T03:23:26.752Z,78.73
2019-05-29T03:25:57.577Z,78.64
2019-05-29T03:28:27.608Z,78.68
2019-05-29T03:30:56.776Z,79.11
2019-05-29T03:33:28.541Z,78.97
2019-05-29T03:35:56.767Z,78.81
2019-05-29T03:38:26.142Z,78.78
2019-05-29T03:40:55.290Z,78.84
2019-05-29T03:43:26.066Z,78.56
2019-05-29T03:45:55.288Z,78.40
2019-05-29T03:48:25.888Z,78.71
2019-05-29T03:50:55.076Z,78.81
2019-05-29T03:53:24.430Z,78.84
2019-05-29T03:55:53.560Z,78.63
2019-05-29T03:58:22.722Z,78.73
2019-05-29T04:00:51.866Z,79.11
2019-05-29T04:03:21.024Z,79.20
2019-05-29T04:05:50.253Z,79.37
2019-05-29T04:08:19.428Z,79.48
2019-05-29T04:10:48.727Z,79.54
2019-05-29T04:13:17.849Z,79.46
2019-05-29T04:15:47.506Z,79.27
2019-05-29T04:18:20.091Z,79.30
2019-05-29T04:20:51.407Z,79.23
2019-05-29T04:23:20.910Z,79.17
2019-05-29T04:25:51.844Z,78.91
2019-05-29T04:28:21.071Z,78.76
2019-05-29T04:30:50.186Z,78.31
2019-05-29T04:33:19.291Z,78.07
2019-05-29T04:35:48.477Z,78.45
2019-05-29T04:38:17.669Z,78.69
2019-05-29T04:40:46.770Z,78.25
2019-05-29T04:43:15.892Z,78.60
2019-05-29T04:45:45.036Z,78.65
2019-05-29T04:48:14.274Z,78.56
2019-05-29T04:50:43.572Z,78.54
2019-05-29T04:53:12.700Z,79.06
2019-05-29T04:55:41.830Z,78.80
2019-05-29T04:58:10.971Z,79.33
2019-05-29T05:00:40.057Z,78.63
2019-05-29T05:03:09.242Z,78.86
2019-05-29T05:05:39.570Z,78.99
2019-05-29T05:08:08.790Z,79.02
2019-05-29T05:10:40.927Z,78.97
2019-05-29T05:13:10.358Z,78.69
2019-05-29T05:15:40.294Z,78.50
2019-05-29T05:18:09.471Z,78.47
2019-05-29T05:20:38.618Z,79.49
2019-05-29T05:23:07.745Z,79.07
2019-05-29T05:25:36.884Z,78.74
2019-05-29T05:28:06.210Z,78.16
2019-05-29T05:30:36.462Z,78.23
2019-05-29T05:33:05.685Z,78.25
2019-05-29T05:35:34.888Z,78.06
2019-05-29T05:38:04.043Z,77.59
2019-05-29T05:40:36.984Z,77.32
2019-05-29T05:43:04.112Z,77.36
2019-05-29T05:45:33.259Z,77.72
2019-05-29T05:48:02.392Z,78.55
2019-05-29T05:50:31.687Z,77.84
2019-05-29T05:53:00.793Z,77.24
2019-05-29T05:55:31.386Z,77.37
2019-05-29T05:58:00.657Z,77.10
2019-05-29T06:00:32.021Z,76.91
2019-05-29T06:03:01.225Z,76.25
2019-05-29T06:05:30.429Z,76.12
2019-05-29T06:07:59.974Z,76.42
2019-05-29T06:10:29.188Z,75.93
2019-05-29T06:12:58.339Z,76.16
2019-05-29T06:15:27.495Z,75.55
2019-05-29T06:18:10.454Z,74.72
2019-05-29T06:20:27.506Z,74.07
2019-05-29T06:22:56.768Z,74.49
2019-05-29T06:25:26.729Z,74.49
2019-05-29T06:27:55.897Z,73.82
2019-05-29T06:30:25.038Z,72.77
2019-05-29T06:32:54.191Z,73.58
2019-05-29T06:35:23.342Z,73.12
2019-05-29T06:37:54.756Z,72.89
2019-05-29T06:40:36.361Z,73.09
2019-05-29T06:43:07.658Z,71.58
2019-05-29T06:45:37.874Z,72.76
2019-05-29T06:48:09.160Z,72.78
2019-05-29T06:50:39.392Z,73.44
2019-05-29T06:53:08.588Z,72.47
2019-05-29T06:55:37.959Z,72.07
2019-05-29T06:58:07.190Z,72.33
2019-05-29T07:00:38.140Z,72.28
2019-05-29T07:03:07.224Z,72.96
2019-05-29T07:05:37.686Z,72.82
2019-05-29T07:08:18.535Z,72.59
2019-05-29T07:10:38.524Z,72.05
2019-05-29T07:13:08.402Z,71.81
2019-05-29T07:15:38.573Z,72.22
2019-05-29T07:18:07.811Z,72.24
2019-05-29T07:20:36.917Z,71.32
2019-05-29T07:23:06.153Z,70.59
2019-05-29T07:25:35.272Z,70.41
2019-05-29T07:28:04.445Z,70.92
2019-05-29T07:30:33.613Z,71.16
2019-05-29T07:33:02.864Z,71.31
2019-05-29T07:35:32.305Z,71.10
2019-05-29T07:38:01.457Z,70.63
2019-05-29T07:40:31.843Z,70.28
2019-05-29T07:43:01.578Z,70.31
2019-05-29T07:45:30.716Z,70.31
2019-05-29T07:47:59.885Z,70.23
2019-05-29T07:50:29.051Z,69.90
2019-05-29T07:52:58.205Z,69.89
2019-05-29T07:55:27.416Z,69.71
2019-05-29T07:57:56.581Z,70.10
2019-05-29T08:00:35.269Z,69.38
2019-05-29T08:02:56.767Z,69.47
2019-05-29T08:05:26.564Z,69.74
2019-05-29T08:07:55.825Z,69.05
2019-05-29T08:10:25.150Z,68.47
2019-05-29T08:12:55.937Z,68.70
2019-05-29T08:15:25.368Z,67.91
2019-05-29T08:17:54.508Z,67.83
2019-05-29T08:20:23.647Z,66.40
2019-05-29T08:22:52.793Z,65.93
2019-05-29T08:25:22.035Z,66.13
2019-05-29T08:27:51.165Z,66.56
2019-05-29T08:30:21.766Z,65.91
2019-05-29T08:32:51.327Z,64.68
2019-05-29T08:35:20.517Z,65.07
2019-05-29T08:37:49.656Z,65.43
2019-05-29T08:40:19.002Z,65.51
2019-05-29T08:42:49.331Z,64.03
2019-05-29T08:45:18.745Z,65.01
2019-05-29T08:47:47.888Z,64.14
2019-05-29T08:50:19.242Z,63.52
2019-05-29T08:52:48.651Z,63.38
2019-05-29T08:55:17.977Z,64.88
2019-05-29T08:57:48.274Z,64.59
2019-05-29T09:00:17.853Z,64.90
2019-05-29T09:02:47.006Z,64.54
2019-05-29T09:05:17.652Z,65.02
2019-05-29T09:07:48.313Z,64.00
2019-05-29T09:10:17.671Z,64.00
2019-05-29T09:12:54.913Z,64.95
2019-05-29T09:15:21.030Z,61.88
2019-05-29T09:17:49.446Z,61.37
2019-05-29T09:20:31.955Z,61.40
2019-05-29T09:22:49.769Z,61.69
2019-05-29T09:25:19.145Z,62.36
2019-05-29T09:27:48.378Z,62.11
2019-05-29T09:30:19.683Z,61.25
2019-05-29T09:32:52.020Z,60.64
2019-05-29T09:35:21.626Z,59.68
2019-05-29T09:37:50.783Z,60.61
2019-05-29T09:40:21.014Z,59.42
2019-05-29T09:42:50.393Z,59.86
2019-05-29T09:45:19.783Z,60.48
2019-05-29T09:47:49.096Z,59.41
2019-05-29T09:50:20.776Z,59.26
2019-05-29T09:52:49.800Z,59.09
2019-05-29T09:55:19.108Z,59.58
2019-05-29T09:57:48.313Z,59.96
2019-05-29T10:00:18.043Z,60.77
2019-05-29T10:02:47.208Z,61.18
2019-05-29T10:05:16.599Z,60.33
2019-05-29T10:07:45.718Z,59.71
2019-05-29T10:10:15.688Z,58.61
2019-05-29T10:12:44.832Z,59.04
2019-05-29T10:15:15.098Z,59.20
2019-05-29T10:17:44.306Z,60.08
2019-05-29T10:20:13.948Z,59.75
2019-05-29T10:22:43.083Z,59.40
2019-05-29T10:25:14.118Z,58.06
2019-05-29T10:27:43.257Z,57.94
2019-05-29T10:30:12.913Z,57.94
2019-05-29T10:32:42.702Z,58.74
2019-05-29T10:35:12.430Z,58.44
2019-05-29T10:37:42.800Z,59.79
2019-05-29T10:40:13.244Z,60.58
2019-05-29T10:42:43.068Z,61.57
2019-05-29T10:45:12.835Z,59.98
2019-05-29T10:47:43.237Z,60.20
2019-05-29T10:50:13.480Z,59.34
2019-05-29T10:52:43.765Z,59.15
2019-05-29T10:55:13.486Z,59.18
2019-05-29T10:57:42.612Z,59.78
2019-05-29T11:00:12.272Z,59.17
2019-05-29T11:02:41.415Z,58.89
2019-05-29T11:05:10.903Z,59.44
2019-05-29T11:07:40.012Z,60.17
2019-05-29T11:10:13.337Z,60.55
2019-05-29T11:12:40.490Z,60.40
2019-05-29T11:15:20.786Z,58.34
2019-05-29T11:17:40.661Z,59.32
2019-05-29T11:20:10.810Z,59.22
2019-05-29T11:22:40.287Z,58.18
2019-05-29T11:25:22.590Z,56.88
2019-05-29T11:27:40.848Z,56.54
2019-05-29T11:30:10.463Z,56.14
2019-05-29T11:32:39.580Z,54.50
2019-05-29T11:35:08.716Z,56.36
2019-05-29T11:37:37.873Z,55.34
2019-05-29T11:40:07.390Z,53.57
2019-05-29T11:42:36.646Z,52.04
2019-05-29T11:45:07.303Z,52.04
2019-05-29T11:47:36.450Z,53.13
2019-05-29T11:50:18.746Z,50.45
2019-05-29T11:52:42.758Z,51.42
2019-05-29T11:55:10.045Z,51.48
2019-05-29T11:57:39.797Z,49.56
2019-05-29T12:00:19.445Z,49.22
2019-05-29T12:02:40.983Z,50.88
2019-05-29T12:05:10.640Z,51.57
2019-05-29T12:07:39.868Z,50.88
2019-05-29T12:10:10.157Z,50.68
2019-05-29T12:12:39.470Z,50.68
2019-05-29T12:15:14.427Z,50.59
2019-05-29T12:17:40.906Z,50.64
2019-05-29T12:20:27.309Z,50.18
2019-05-29T12:23:07.290Z,50.39
2019-05-29T12:25:13.062Z,51.69
2019-05-29T12:27:42.327Z,50.92
2019-05-29T12:30:11.944Z,52.04
2019-05-29T12:32:41.180Z,50.28
2019-05-29T12:35:10.443Z,51.39
2019-05-29T12:37:39.766Z,51.84
2019-05-29T12:40:10.677Z,51.01
2019-05-29T12:42:41.967Z,52.40
2019-05-29T12:45:11.002Z,52.37
2019-05-29T12:47:40.113Z,51.94
2019-05-29T12:50:09.955Z,51.89
2019-05-29T12:52:39.059Z,52.71
2019-05-29T12:55:08.796Z,51.89
2019-05-29T12:57:38.696Z,51.07
2019-05-29T13:00:08.679Z,51.67
2019-05-29T13:02:37.812Z,51.95
2019-05-29T13:05:16.904Z,53.28
2019-05-29T13:07:39.102Z,53.20
2019-05-29T13:10:08.973Z,53.20
2019-05-29T13:12:38.247Z,53.06
2019-05-29T13:15:08.883Z,53.10
2019-05-29T13:17:38.032Z,54.08
2019-05-29T13:20:20.612Z,55.54
2019-05-29T13:22:38.915Z,56.52
2019-05-29T13:25:12.038Z,57.10
2019-05-29T13:27:39.749Z,56.70
2019-05-29T13:30:10.193Z,56.71
2019-05-29T13:32:39.358Z,57.49
2019-05-29T13:35:09.007Z,55.86
2019-05-29T13:37:38.162Z,55.79
2019-05-29T13:40:11.994Z,55.81
2019-05-29T13:42:41.159Z,55.46
2019-05-29T13:45:18.424Z,55.64
2019-05-29T13:47:44.984Z,56.06
2019-05-29T13:50:14.654Z,55.89
2019-05-29T13:52:43.765Z,56.95
2019-05-29T13:55:14.651Z,57.63
2019-05-29T13:57:43.799Z,58.42
2019-05-29T14:00:34.371Z,57.34
2019-05-29T14:02:46.313Z,56.67
2019-05-29T14:05:16.412Z,61.28
2019-05-29T14:07:45.540Z,62.09
2019-05-29T14:10:16.168Z,63.75
2019-05-29T14:12:45.343Z,65.61
2019-05-29T14:15:14.788Z,66.97
2019-05-29T14:17:43.941Z,66.18
2019-05-29T14:20:13.337Z,65.70
2019-05-29T14:22:42.502Z,67.53
2019-05-29T14:25:12.858Z,67.55
2019-05-29T14:27:42.045Z,65.45
2019-05-29T14:30:14.057Z,65.69
2019-05-29T14:32:43.064Z,66.04
2019-05-29T14:35:13.357Z,66.49
2019-05-29T14:37:42.618Z,66.77
2019-05-29T14:40:12.444Z,68.96
2019-05-29T14:42:41.516Z,69.87
2019-05-29T14:45:12.387Z,68.38
2019-05-29T14:47:41.830Z,68.05
2019-05-29T14:50:13.236Z,66.75
2019-05-29T14:52:42.338Z,67.06
2019-05-29T14:55:16.271Z,65.16
2019-05-29T14:57:43.373Z,63.96
2019-05-29T15:00:24.925Z,66.01
2019-05-29T15:02:44.168Z,64.02
2019-05-29T15:05:15.045Z,61.46
2019-05-29T15:07:44.557Z,61.79
2019-05-29T15:10:24.808Z,62.29
2019-05-29T15:12:44.894Z,61.50
2019-05-29T15:15:16.493Z,59.97
2019-05-29T15:17:46.948Z,61.40
2019-05-29T15:20:17.021Z,58.58
2019-05-29T15:22:46.331Z,58.43
2019-05-29T15:25:23.659Z,58.91
2019-05-29T15:27:46.529Z,58.71
2019-05-29T15:30:22.900Z,58.12
2019-05-29T15:32:48.319Z,59.04
2019-05-29T15:35:19.841Z,57.07
2019-05-29T15:37:48.606Z,57.44
2019-05-29T15:40:18.065Z,58.63
2019-05-29T15:42:47.228Z,57.35
2019-05-29T15:45:18.174Z,57.44
2019-05-29T15:47:48.086Z,57.03
2019-05-29T15:50:17.958Z,57.89
2019-05-29T15:52:47.261Z,56.87
2019-05-29T15:55:28.543Z,57.57
2019-05-29T15:57:48.351Z,58.43
2019-05-29T16:00:17.955Z,59.48
2019-05-29T16:02:49.103Z,57.93
2019-05-29T16:05:19.158Z,57.67
2019-05-29T16:07:48.504Z,57.89
2019-05-29T16:10:20.580Z,57.04
2019-05-29T16:12:48.989Z,58.21
2019-05-29T16:15:19.436Z,57.24
2019-05-29T16:17:50.961Z,57.51
2019-05-29T16:20:22.698Z,58.43
2019-05-29T16:22:52.237Z,56.98
2019-05-29T16:25:37.886Z,57.67
2019-05-29T16:27:52.935Z,57.55
2019-05-29T16:30:22.377Z,58.60
2019-05-29T16:32:51.533Z,60.64
2019-05-29T16:35:20.914Z,60.10
2019-05-29T16:37:50.159Z,58.40
2019-05-29T16:40:20.054Z,57.60
2019-05-29T16:42:49.188Z,59.09
2019-05-29T16:45:18.747Z,58.41
2019-05-29T16:47:47.951Z,58.52
2019-05-29T16:50:19.467Z,59.90
2019-05-29T16:52:49.895Z,59.46
2019-05-29T16:55:19.462Z,60.10
2019-05-29T16:57:48.622Z,59.77
2019-05-29T17:00:19.450Z,59.23
2019-05-29T17:02:48.721Z,58.94
2019-05-29T17:05:20.517Z,59.23
2019-05-29T17:07:50.131Z,58.53
2019-05-29T17:10:22.377Z,57.52
2019-05-29T17:12:51.697Z,57.21
2019-05-29T17:15:22.830Z,57.96
2019-05-29T17:17:52.154Z,60.91
2019-05-29T17:20:38.126Z,58.78
2019-05-29T17:23:07.453Z,59.27
2019-05-29T17:25:36.592Z,58.04
2019-05-29T17:28:05.746Z,59.22
2019-05-29T17:30:34.917Z,58.75
2019-05-29T17:33:04.157Z,58.54
2019-05-29T17:35:33.288Z,59.25
2019-05-29T17:38:02.436Z,60.24
2019-05-29T17:40:31.638Z,59.47
2019-05-29T17:43:00.814Z,60.06
2019-05-29T17:45:30.097Z,61.09
2019-05-29T17:47:59.284Z,60.96
2019-05-29T17:50:28.427Z,61.21
2019-05-29T17:52:57.583Z,60.61
2019-05-29T17:55:26.804Z,61.49
2019-05-29T17:57:55.931Z,60.57
2019-05-29T18:00:26.573Z,60.71
2019-05-29T18:02:55.882Z,60.33
2019-05-29T18:05:25.029Z,59.88
2019-05-29T18:07:54.200Z,59.98
2019-05-29T18:10:25.581Z,58.98
2019-05-29T18:12:54.876Z,58.72
2019-05-29T18:15:24.092Z,58.45
2019-05-29T18:17:53.275Z,59.15
2019-05-29T18:20:23.631Z,58.53
2019-05-29T18:22:52.887Z,58.45
2019-05-29T18:25:22.040Z,59.84
2019-05-29T18:27:51.189Z,59.31
2019-05-29T18:30:21.902Z,59.26
2019-05-29T18:32:51.522Z,58.88
2019-05-29T18:35:20.843Z,60.16
2019-05-29T18:37:49.888Z,60.11
2019-05-29T18:40:20.318Z,60.54
2019-05-29T18:42:49.552Z,60.12
2019-05-29T18:45:22.431Z,59.62
2019-05-29T18:47:49.805Z,60.29
2019-05-29T18:50:19.279Z,60.30
2019-05-29T18:52:48.445Z,61.33
2019-05-29T18:55:17.810Z,59.79
2019-05-29T18:57:47.008Z,61.06
2019-05-29T19:00:16.936Z,61.20
2019-05-29T19:02:46.103Z,61.73
2019-05-29T19:05:15.484Z,62.06
2019-05-29T19:07:44.603Z,61.75
2019-05-29T19:10:14.018Z,62.99
2019-05-29T19:12:43.235Z,62.00
2019-05-29T19:15:12.890Z,62.08
2019-05-29T19:17:42.058Z,62.50
2019-05-29T19:20:11.895Z,61.86
2019-05-29T19:22:41.050Z,62.30
2019-05-29T19:25:12.852Z,60.60
2019-05-29T19:27:42.558Z,61.50
2019-05-29T19:30:13.956Z,63.11
2019-05-29T19:32:43.083Z,62.87
2019-05-29T19:35:12.548Z,63.18
2019-05-29T19:37:41.742Z,62.75
2019-05-29T19:40:11.785Z,63.12
2019-05-29T19:42:40.965Z,63.17
2019-05-29T19:45:10.900Z,62.73
2019-05-29T19:47:40.119Z,63.30
2019-05-29T19:50:11.343Z,62.33
2019-05-29T19:52:40.987Z,62.68
2019-05-29T19:55:10.534Z,62.54
2019-05-29T19:57:54.767Z,62.90
2019-05-29T20:00:12.106Z,62.42
2019-05-29T20:02:41.485Z,62.47
2019-05-29T20:05:11.008Z,62.81
2019-05-29T20:07:40.213Z,62.88
2019-05-29T20:10:09.869Z,63.40
2019-05-29T20:12:39.195Z,62.73
2019-05-29T20:15:09.213Z,63.23
2019-05-29T20:17:38.631Z,63.17
2019-05-29T20:20:08.395Z,63.39
2019-05-29T20:22:38.950Z,63.05
2019-05-29T20:25:08.610Z,63.17
2019-05-29T20:27:38.561Z,64.37
2019-05-29T20:30:09.308Z,64.72
2019-05-29T20:32:38.929Z,64.42
2019-05-29T20:35:08.271Z,64.11
2019-05-29T20:37:38.407Z,63.85
2019-05-29T20:40:08.405Z,64.16
2019-05-29T20:42:38.471Z,63.84
2019-05-29T20:45:08.091Z,64.12
2019-05-29T20:47:38.010Z,63.77
2019-05-29T20:50:07.735Z,63.73
2019-05-29T20:52:37.333Z,63.91
2019-05-29T20:55:07.078Z,64.51
2019-05-29T20:57:36.263Z,65.17
2019-05-29T21:00:07.281Z,65.02
2019-05-29T21:02:36.458Z,65.59
2019-05-29T21:05:06.678Z,66.26
2019-05-29T21:07:36.629Z,66.09
2019-05-29T21:10:06.441Z,66.13
2019-05-29T21:12:35.714Z,66.38
2019-05-29T21:15:05.286Z,66.43
2019-05-29T21:17:35.634Z,66.79
2019-05-29T21:20:05.445Z,67.59
2019-05-29T21:22:34.820Z,67.85
2019-05-29T21:25:08.844Z,68.26
2019-05-29T21:27:35.197Z,68.45
2019-05-29T21:30:05.185Z,68.47
2019-05-29T21:32:35.636Z,68.59
2019-05-29T21:35:05.403Z,68.44
2019-05-29T21:37:34.585Z,68.73
2019-05-29T21:40:03.900Z,68.58
2019-05-29T21:42:33.061Z,68.88
2019-05-29T21:45:02.283Z,69.26
2019-05-29T21:47:31.407Z,69.69
2019-05-29T21:50:00.731Z,69.57
2019-05-29T21:52:29.866Z,69.89
2019-05-29T21:54:59.107Z,70.26
2019-05-29T21:57:28.323Z,70.48
2019-05-29T21:59:57.407Z,70.50
2019-05-29T22:02:26.619Z,70.66
2019-05-29T22:04:55.736Z,70.66
2019-05-29T22:07:24.909Z,70.56
2019-05-29T22:09:54.538Z,70.58
2019-05-29T22:12:23.797Z,70.55
2019-05-29T22:14:53.394Z,70.55
2019-05-29T22:17:23.859Z,71.20
2019-05-29T22:19:53.045Z,71.35
2019-05-29T22:22:22.292Z,71.47
2019-05-29T22:24:51.455Z,71.63
2019-05-29T22:27:20.626Z,72.22
2019-05-29T22:29:51.825Z,72.55
2019-05-29T22:32:20.716Z,72.97
2019-05-29T22:34:51.978Z,72.66
2019-05-29T22:37:20.734Z,72.86
2019-05-29T22:39:51.372Z,73.06
2019-05-29T22:42:20.687Z,73.58
2019-05-29T22:44:49.837Z,74.15
2019-05-29T22:47:19.055Z,74.02
2019-05-29T22:49:48.196Z,74.32
2019-05-29T22:52:17.414Z,75.14
2019-05-29T22:54:46.591Z,75.31
2019-05-29T22:57:15.769Z,75.21
2019-05-29T22:59:44.931Z,75.04
2019-05-29T23:02:14.149Z,74.91
2019-05-29T23:04:43.264Z,75.58
2019-05-29T23:07:12.434Z,75.44
2019-05-29T23:09:41.595Z,75.43
2019-05-29T23:12:10.807Z,75.38
2019-05-29T23:14:40.075Z,75.07
2019-05-29T23:17:09.234Z,75.13
2019-05-29T23:19:38.439Z,75.18
2019-05-29T23:22:07.602Z,75.21
2019-05-29T23:24:36.783Z,75.12
2019-05-29T23:27:06.087Z,74.86
2019-05-29T23:29:47.888Z,75.03
2019-05-29T23:32:06.089Z,74.90
2019-05-29T23:34:35.272Z,75.02
2019-05-29T23:37:04.435Z,74.92
2019-05-29T23:39:33.666Z,74.80
2019-05-29T23:42:03.620Z,74.62
2019-05-29T23:44:32.836Z,74.62
2019-05-29T23:47:01.977Z,74.61
2019-05-29T23:49:31.111Z,74.72
2019-05-29T23:52:00.256Z,74.78
2019-05-29T23:54:29.365Z,74.62
2019-05-29T23:56:59.900Z,74.61
2019-05-29T23:59:29.071Z,74.87
